| time (UTC) | temp F | wind direction | speed MPH | gust MPH | rain 1hr in | rain 24hr in | rain mn in | humidity % | barometer mb |
| 20260903081139 | 38 | 266 | 5.0 | 11.0 | 0.00 | 0.00 | 0.00 | 84 | 718.2 |
| 20260903080526 | 38 | 256 | 7.0 | 15.0 | 0.00 | 0.00 | 0.00 | 84 | 718.1 |
| 20260903075526 | 36 | 274 | 5.0 | 13.0 | 0.00 | 0.00 | 0.00 | 84 | 718.0 |
| 20260903074139 | 37 | 276 | 5.0 | 14.0 | 0.00 | 0.00 | 0.00 | 85 | 718.1 |
| 20260903073525 | 37 | 256 | 8.0 | 12.0 | 0.00 | 0.00 | 0.00 | 84 | 718.1 |
| 20260903072525 | 36 | 262 | 7.0 | 15.0 | 0.00 | 0.00 | 0.00 | 84 | 718.0 |
| 20260903071139 | 36 | 277 | 9.0 | 16.0 | 0.00 | 0.00 | 0.00 | 84 | 717.9 |
| 20260903070526 | 35 | 290 | 9.0 | 23.0 | 0.00 | 0.00 | 0.00 | 86 | 717.8 |
| 20260903065526 | 35 | 322 | 8.0 | 15.0 | 0.00 | 0.00 | 0.00 | 85 | 717.8 |
| 20260903064138 | 35 | 333 | 8.0 | 17.0 | 0.00 | 0.00 | 0.00 | 87 | 717.7 |
| 20260903063525 | 35 | 305 | 7.0 | 15.0 | 0.00 | 0.00 | 0.00 | 86 | 717.7 |
| 20260903062526 | 35 | 301 | 9.0 | 15.0 | 0.00 | 0.00 | 0.00 | 85 | 717.6 |
| 20260903061139 | 35 | 322 | 9.0 | 17.0 | 0.00 | 0.00 | 0.00 | 87 | 717.6 |
| 20260903060526 | 35 | 320 | 11.0 | 18.0 | 0.00 | 0.00 | 0.00 | 84 | 717.5 |
| 20260903055525 | 35 | 320 | 10.0 | 17.0 | 0.00 | 0.00 | 0.00 | 86 | 717.5 |
| 20260903054138 | 35 | 316 | 10.0 | 19.0 | 0.00 | 0.00 | 0.00 | 83 | 717.5 |
| 20260903053525 | 35 | 325 | 14.0 | 21.0 | 0.00 | 0.00 | 0.00 | 81 | 717.4 |
| 20260903052526 | 35 | 320 | 12.0 | 20.0 | 0.00 | 0.00 | 0.00 | 82 | 717.3 |
| 20260903051139 | 35 | 327 | 14.0 | 23.0 | 0.00 | 0.00 | 0.00 | 80 | 717.3 |
| 20260903050525 | 34 | 315 | 12.0 | 20.0 | 0.00 | 0.00 | 0.00 | 83 | 717.0 |
| 20260903045526 | 35 | 314 | 11.0 | 23.0 | 0.00 | 0.00 | 0.00 | 82 | 717.3 |
| 20260903044138 | 34 | 297 | 13.0 | 20.0 | 0.00 | 0.00 | 0.00 | 85 | 717.3 |
| 20260903043525 | 35 | 314 | 13.0 | 24.0 | 0.00 | 0.00 | 0.00 | 80 | 717.0 |
| 20260903042526 | 35 | 319 | 11.0 | 20.0 | 0.00 | 0.00 | 0.00 | 82 | 717.3 |
| 20260903041138 | 35 | 316 | 11.0 | 19.0 | 0.00 | 0.00 | 0.00 | 79 | 717.3 |
| 20260903040526 | 34 | 321 | 12.0 | 22.0 | 0.00 | 0.00 | 0.00 | 80 | 717.3 |
| 20260903035526 | 34 | 309 | 11.0 | 22.0 | 0.00 | 0.00 | 0.00 | 80 | 717.3 |
| 20260903034525 | 34 | 279 | 12.0 | 23.0 | 0.00 | 0.00 | 0.00 | 79 | 717.4 |
| 20260903033525 | 34 | 281 | 11.0 | 21.0 | 0.00 | 0.00 | 0.00 | 84 | 717.5 |
| 20260903032526 | 34 | 306 | 10.0 | 18.0 | 0.00 | 0.00 | 0.00 | 86 | 717.4 |
| 20260903031139 | 34 | 288 | 9.0 | 20.0 | 0.00 | 0.00 | 0.00 | 84 | 717.4 |
| 20260903030526 | 35 | 282 | 11.0 | 21.0 | 0.00 | 0.00 | 0.00 | 81 | 717.4 |
| 20260903025526 | 35 | 281 | 17.0 | 27.0 | 0.00 | 0.00 | 0.00 | 76 | 717.4 |
| 20260903024526 | 35 | 278 | 17.0 | 23.0 | 0.00 | 0.00 | 0.00 | 79 | 717.4 |
| 20260903023526 | 35 | 267 | 16.0 | 25.0 | 0.00 | 0.00 | 0.00 | 82 | 717.4 |
| 20260903022526 | 35 | 273 | 13.0 | 21.0 | 0.00 | 0.00 | 0.00 | 84 | 717.5 |
| 20260903021138 | 35 | 278 | 15.0 | 23.0 | 0.00 | 0.00 | 0.00 | 84 | 717.5 |
| 20260903020526 | 35 | 278 | 16.0 | 26.0 | 0.00 | 0.00 | 0.00 | 88 | 717.5 |
| 20260903015526 | 34 | 264 | 11.0 | 17.0 | 0.00 | 0.00 | 0.00 | 100 | 717.5 |
| 20260903014138 | 35 | 275 | 6.0 | 16.0 | 0.00 | 0.00 | 0.00 | 100 | 717.6 |
| 20260903013525 | 35 | 273 | 11.0 | 20.0 | 0.00 | 0.00 | 0.00 | 99 | 717.6 |
| 20260903012525 | 35 | 273 | 12.0 | 19.0 | 0.00 | 0.00 | 0.00 | 99 | 717.6 |
| 20260903011139 | 35 | 276 | 13.0 | 19.0 | 0.00 | 0.00 | 0.00 | 94 | 717.7 |
| 20260903010526 | 35 | 299 | 8.0 | 16.0 | 0.00 | 0.00 | 0.00 | 96 | 717.6 |
| 20260903005526 | 35 | 293 | 9.0 | 16.0 | 0.00 | 0.00 | 0.00 | 94 | 717.6 |
| 20260903004139 | 35 | 279 | 5.0 | 17.0 | 0.00 | 0.00 | 0.00 | 100 | 717.6 |
| 20260903003526 | 35 | 291 | 6.0 | 23.0 | 0.00 | 0.00 | 0.00 | 100 | 717.6 |
| 20260903002526 | 36 | 286 | 11.0 | 23.0 | 0.00 | 0.00 | 0.00 | 86 | 717.5 |
| 20260903001538 | 35 | 275 | 13.0 | 22.0 | 0.00 | 0.00 | 0.00 | 96 | 717.6 |
| 20260903000525 | 35 | 288 | 15.0 | 26.0 | 0.00 | 0.00 | 0.00 | 92 | 717.6 |
| 20260902235525 | 35 | 286 | 13.0 | 30.0 | 0.00 | 0.00 | 0.00 | 93 | 717.7 |
| 20260902234139 | 36 | 283 | 16.0 | 26.0 | 0.00 | 0.00 | 0.00 | 83 | 717.6 |
| 20260902233525 | 35 | 291 | 8.0 | 21.0 | 0.00 | 0.00 | 0.00 | 95 | 717.7 |
| 20260902232525 | 35 | 280 | 9.0 | 23.0 | 0.00 | 0.00 | 0.00 | 89 | 717.7 |
| 20260902231526 | 35 | 280 | 11.0 | 22.0 | 0.00 | 0.00 | 0.00 | 99 | 717.7 |
| 20260902230526 | 35 | 293 | 7.0 | 16.0 | 0.00 | 0.00 | 0.00 | 100 | 717.7 |
| 20260902225526 | 35 | 263 | 8.0 | 14.0 | 0.00 | 0.00 | 0.00 | 96 | 717.7 |
| 20260902224139 | 36 | 277 | 11.0 | 21.0 | 0.00 | 0.00 | 0.00 | 95 | 717.7 |
| 20260902223526 | 36 | 278 | 12.0 | 25.0 | 0.00 | 0.00 | 0.00 | 90 | 717.9 |
| 20260902222526 | 36 | 301 | 11.0 | 19.0 | 0.00 | 0.00 | 0.00 | 91 | 717.9 |
| 20260902221139 | 36 | 305 | 16.0 | 21.0 | 0.00 | 0.00 | 0.00 | 90 | 717.7 |
| 20260902220525 | 36 | 290 | 17.0 | 25.0 | 0.00 | 0.00 | 0.00 | 89 | 717.7 |
| 20260902215525 | 35 | 282 | 15.0 | 23.0 | 0.00 | 0.00 | 0.00 | 92 | 717.7 |
| 20260902214139 | 35 | 269 | 19.0 | 27.0 | 0.00 | 0.00 | 0.00 | 92 | 717.7 |
| 20260902213525 | 35 | 264 | 21.0 | 29.0 | 0.00 | 0.00 | 0.00 | 97 | 717.7 |
| 20260902211139 | 35 | 264 | 23.0 | 33.0 | 0.00 | 0.00 | 0.00 | 94 | 717.7 |
| 20260902210526 | 36 | 293 | 16.0 | 32.0 | 0.00 | 0.00 | 0.00 | 87 | 717.7 |
| 20260902205526 | 37 | 314 | 16.0 | 27.0 | 0.00 | 0.00 | 0.00 | 83 | 717.8 |
| 20260902204140 | 37 | 298 | 12.0 | 24.0 | 0.00 | 0.00 | 0.00 | 84 | 717.8 |
| 20260902203525 | 37 | 284 | 12.0 | 21.0 | 0.00 | 0.00 | 0.00 | 82 | 717.6 |
| 20260902202526 | 37 | 283 | 13.0 | 28.0 | 0.00 | 0.00 | 0.00 | 85 | 717.8 |
| 20260902201139 | 37 | 279 | 20.0 | 26.0 | 0.00 | 0.00 | 0.00 | 79 | 717.7 |
| 20260902200526 | 36 | 272 | 15.0 | 25.0 | 0.00 | 0.00 | 0.00 | 83 | 717.7 |
| 20260902195526 | 36 | 314 | 15.0 | 30.0 | 0.00 | 0.00 | 0.00 | 91 | 717.9 |
| 20260902194139 | 38 | 14 | 6.0 | 11.0 | 0.00 | 0.00 | 0.00 | 100 | 718.0 |
| 20260902193526 | 38 | 12 | 8.0 | 13.0 | 0.00 | 0.00 | 0.00 | 100 | 717.9 |
| 20260902192525 | 38 | 16 | 8.0 | 12.0 | 0.00 | 0.00 | 0.00 | 100 | 717.9 |
| 20260902191139 | 38 | 13 | 9.0 | 15.0 | 0.00 | 0.00 | 0.00 | 100 | 717.9 |
| 20260902190525 | 38 | 9 | 9.0 | 16.0 | 0.00 | 0.00 | 0.00 | 100 | 717.9 |
| 20260902185526 | 38 | 2 | 7.0 | 18.0 | 0.00 | 0.00 | 0.00 | 98 | 717.8 |
| 20260902184139 | 38 | 20 | 7.0 | 11.0 | 0.00 | 0.00 | 0.00 | 100 | 717.8 |
| 20260902183526 | 38 | 29 | 7.0 | 10.0 | 0.00 | 0.00 | 0.00 | 100 | 717.7 |
| 20260902182526 | 38 | 23 | 7.0 | 11.0 | 0.00 | 0.00 | 0.00 | 100 | 717.5 |
| 20260902181139 | 38 | 25 | 7.0 | 11.0 | 0.00 | 0.00 | 0.00 | 100 | 717.5 |
| 20260902180526 | 38 | 24 | 8.0 | 10.0 | 0.00 | 0.00 | 0.00 | 100 | 717.4 |
| 20260902175526 | 38 | 23 | 10.0 | 15.0 | 0.00 | 0.00 | 0.00 | 100 | 717.3 |
| 20260902174139 | 38 | 24 | 7.0 | 10.0 | 0.00 | 0.00 | 0.00 | 100 | 717.3 |
| 20260902173525 | 38 | 33 | 7.0 | 11.0 | 0.00 | 0.00 | 0.00 | 100 | 717.3 |
| 20260902172526 | 38 | 20 | 7.0 | 12.0 | 0.00 | 0.00 | 0.00 | 100 | 717.1 |
| 20260902171139 | 38 | 18 | 10.0 | 15.0 | 0.00 | 0.00 | 0.00 | 100 | 717.0 |
| 20260902170526 | 39 | 12 | 6.0 | 9.0 | 0.00 | 0.00 | 0.00 | 100 | 717.1 |
| 20260902165526 | 39 | 15 | 10.0 | 13.0 | 0.00 | 0.00 | 0.00 | 100 | 717.1 |
| 20260902164139 | 39 | 23 | 9.0 | 11.0 | 0.00 | 0.00 | 0.00 | 100 | 717.1 |
| 20260902163526 | 39 | 22 | 6.0 | 10.0 | 0.00 | 0.00 | 0.00 | 100 | 717.3 |
| 20260902162526 | 39 | 17 | 7.0 | 12.0 | 0.00 | 0.00 | 0.00 | 99 | 717.1 |
| 20260902161139 | 39 | 24 | 8.0 | 11.0 | 0.00 | 0.00 | 0.00 | 99 | 717.1 |
| 20260902160525 | 39 | 29 | 8.0 | 12.0 | 0.00 | 0.00 | 0.00 | 98 | 717.3 |
| 20260902155526 | 40 | 28 | 7.0 | 9.0 | 0.00 | 0.00 | 0.00 | 96 | 717.3 |
| 20260902154139 | 39 | 23 | 6.0 | 10.0 | 0.00 | 0.00 | 0.00 | 93 | 717.4 |
| 20260902153526 | 40 | 34 | 6.0 | 9.0 | 0.00 | 0.00 | 0.00 | 93 | 717.5 |
| 20260902152525 | 40 | 20 | 3.0 | 7.0 | 0.00 | 0.00 | 0.00 | 93 | 717.6 |
| 20260902151139 | 39 | 16 | 7.0 | 11.0 | 0.00 | 0.00 | 0.00 | 95 | 717.6 |
| 20260902150526 | 39 | 28 | 9.0 | 12.0 | 0.00 | 0.00 | 0.00 | 94 | 717.4 |
| 20260902145526 | 39 | 29 | 9.0 | 11.0 | 0.00 | 0.00 | 0.00 | 93 | 717.4 |
| 20260902144139 | 39 | 31 | 9.0 | 11.0 | 0.00 | 0.00 | 0.00 | 97 | 717.4 |
| 20260902143525 | 40 | 32 | 7.0 | 11.0 | 0.00 | 0.00 | 0.00 | 94 | 717.6 |
| 20260902142526 | 40 | 25 | 6.0 | 10.0 | 0.00 | 0.00 | 0.00 | 94 | 717.6 |
| 20260902141139 | 41 | 9 | 2.0 | 9.0 | 0.00 | 0.00 | 0.00 | 94 | 717.6 |
| 20260902140526 | 42 | 23 | 2.0 | 6.0 | 0.00 | 0.00 | 0.00 | 92 | 717.5 |
| 20260902135526 | 44 | 246 | 1.0 | 8.0 | 0.00 | 0.00 | 0.00 | 89 | 717.6 |
| 20260902134138 | 43 | 1 | 2.0 | 7.0 | 0.00 | 0.00 | 0.00 | 85 | 717.6 |
| 20260902133526 | 41 | 17 | 4.0 | 9.0 | 0.00 | 0.00 | 0.00 | 90 | 717.6 |
| 20260902132526 | 42 | 347 | 2.0 | 6.0 | 0.00 | 0.00 | 0.00 | 86 | 717.6 |
| 20260902131139 | 42 | 330 | 1.0 | 5.0 | 0.00 | 0.00 | 0.00 | 89 | 717.7 |
| 20260902130526 | 42 | 27 | 2.0 | 5.0 | 0.00 | 0.00 | 0.00 | 92 | 717.7 |
| 20260902125526 | 42 | 3 | 3.0 | 6.0 | 0.00 | 0.00 | 0.00 | 86 | 717.7 |
| 20260902124138 | 43 | 332 | 1.0 | 5.0 | 0.00 | 0.00 | 0.00 | 85 | 717.7 |
| 20260902123526 | 43 | 268 | 3.0 | 11.0 | 0.00 | 0.00 | 0.00 | 88 | 717.8 |
| 20260902122526 | 42 | 269 | 6.0 | 10.0 | 0.00 | 0.00 | 0.00 | 86 | 717.8 |
| 20260902121139 | 42 | 290 | 1.0 | 8.0 | 0.00 | 0.00 | 0.00 | 88 | 717.8 |
| 20260902120525 | 42 | 190 | 2.0 | 6.0 | 0.00 | 0.00 | 0.00 | 91 | 717.8 |
| 20260902115525 | 42 | 150 | 3.0 | 7.0 | 0.00 | 0.00 | 0.00 | 92 | 717.8 |
| 20260902114139 | 42 | 241 | 4.0 | 10.0 | 0.00 | 0.00 | 0.00 | 85 | 717.8 |
| 20260902113526 | 41 | 260 | 7.0 | 10.0 | 0.00 | 0.00 | 0.00 | 86 | 717.9 |
| 20260902112526 | 41 | 251 | 7.0 | 9.0 | 0.00 | 0.00 | 0.00 | 92 | 717.9 |
| 20260902111139 | 41 | 248 | 7.0 | 9.0 | 0.00 | 0.00 | 0.00 | 86 | 717.9 |
| 20260902110526 | 41 | 259 | 6.0 | 10.0 | 0.00 | 0.00 | 0.00 | 86 | 717.9 |
| 20260902105525 | 41 | 258 | 6.0 | 10.0 | 0.00 | 0.00 | 0.00 | 81 | 718.0 |
| 20260902104139 | 41 | 256 | 7.0 | 10.0 | 0.00 | 0.00 | 0.00 | 85 | 717.9 |
| 20260902103526 | 40 | 245 | 8.0 | 12.0 | 0.00 | 0.00 | 0.00 | 82 | 717.9 |
| 20260902102525 | 40 | 246 | 9.0 | 12.0 | 0.00 | 0.00 | 0.00 | 82 | 718.0 |
| 20260902101139 | 40 | 248 | 10.0 | 13.0 | 0.00 | 0.00 | 0.00 | 87 | 718.0 |
| 20260902100526 | 40 | 238 | 9.0 | 13.0 | 0.00 | 0.00 | 0.00 | 85 | 718.0 |
| 20260902095526 | 41 | 237 | 8.0 | 13.0 | 0.00 | 0.00 | 0.00 | 84 | 718.0 |
| 20260902094139 | 41 | 240 | 8.0 | 12.0 | 0.00 | 0.00 | 0.00 | 80 | 718.0 |
| 20260902093526 | 40 | 236 | 7.0 | 10.0 | 0.00 | 0.00 | 0.00 | 83 | 718.0 |
| 20260902092526 | 40 | 232 | 10.0 | 13.0 | 0.00 | 0.00 | 0.00 | 83 | 717.9 |
| 20260902091138 | 41 | 239 | 8.0 | 11.0 | 0.00 | 0.00 | 0.00 | 83 | 717.8 |
| 20260902090526 | 40 | 252 | 11.0 | 15.0 | 0.00 | 0.00 | 0.00 | 89 | 717.7 |
| 20260902084138 | 40 | 238 | 11.0 | 14.0 | 0.00 | 0.00 | 0.00 | 88 | 717.6 |
| 20260902083526 | 40 | 240 | 13.0 | 15.0 | 0.00 | 0.00 | 0.00 | 90 | 717.6 |
| 20260902082526 | 40 | 235 | 11.0 | 13.0 | 0.00 | 0.00 | 0.00 | 87 | 717.6 |